Detalii statie AGRALMIXT [00001CED]

Toti senzorii

Date Temperatura solului [C]Precipitatii [mm]Voltaj baterie [mV]Leaf Wetness [Min]HC Air temperature [C]HC Relative humidity [%]Punctul de roua [C]
medieminmaxsumaultimatimpmedieminmaxmediemediemin
2019-10-17 22:00:00 0 6678 8.21 6.83 9.26 100 8.1 6.8
2019-10-17 23:00:00 0 6678 6.58 6.11 7.21 100 6.5 6.1
2019-10-18 00:00:00 0 6668 6.52 5.79 6.96 100 6.4 5.7
2019-10-18 01:00:00 0 6660 4.9 4.38 5.52 100 4.8 4.3
2019-10-18 02:00:00 0.2 6650 4.43 4.27 4.56 100 4.3 4.2
2019-10-18 03:00:00 0 6650 4.41 4.11 4.75 100 4.3 4.1
2019-10-18 04:00:00 0 6650 4.92 4.63 5.17 100 4.8 4.6
2019-10-18 05:00:00 0 6650 5.49 5.18 5.76 100 5.4 5.1
2019-10-18 06:00:00 0 6640 5.86 5.8 5.95 100 5.8 5.8
2019-10-18 07:00:00 0 6640 6.02 5.93 6.17 100 5.9 5.9
2019-10-18 08:00:00 0.2 6698 6.51 6.22 6.89 100 6.4 6.2
2019-10-18 09:00:00 0 6826 7.33 6.79 7.82 100 7.2 6.7
2019-10-18 10:00:00 0 7000 8.32 7.79 8.87 100 8.2 7.7
2019-10-18 11:00:00 0 7108 9.64 8.87 10.68 100 9.5 8.8
2019-10-18 12:00:00 0 7342 11.74 10.53 13.43 100 11.7 10.5
2019-10-18 13:00:00 0 7274 16.45 13.51 19.86 94.62 15.4 13.5
2019-10-18 14:00:00 0 7324 19.85 18.52 21.35 65.73 12.8 10.2
2019-10-18 15:00:00 0 7138 21.56 21.26 21.83 46.99 9.5 8.7
2019-10-18 16:00:00 0 6952 20.34 18.98 21.3 55.03 10.7 10.4
2019-10-18 17:00:00 0 6796 17.33 16.72 18.48 65.5 10.6 10.1
2019-10-18 18:00:00 0 6708 15.05 13.71 16.54 74.92 10.5 9.9
2019-10-18 19:00:00 0 6708 12.93 12.37 13.27 87.66 10.8 10.2
2019-10-18 20:00:00 0 6688 11.57 10.99 12.52 93.76 10.4 10
2019-10-18 21:00:00 0 6688 10 9.12 10.99 98.55 9.6 8.8
2019-10-18 22:00:00 0 6678 9.1 8.33 9.53 100 9 8.3
2019-10-18 23:00:00 0 6668 8.22 7.01 8.78 100 8.1 7
2019-10-19 00:00:00 0 6660 6.77 6.26 7.42 100 6.7 6.2
2019-10-19 01:00:00 0 6660 7.13 6.72 7.98 100 7.1 6.7
2019-10-19 02:00:00 0 6650 5.66 4.75 7 100 5.6 4.7
2019-10-19 03:00:00 0 6650 4.81 4.33 5.36 100 4.7 4.3
2019-10-19 04:00:00 0 6640 5.14 4.59 5.73 100 5.1 4.5
2019-10-19 05:00:00 0 6640 3.92 2.56 4.87 100 3.8 2.5
2019-10-19 06:00:00 0 6620 2.29 1.65 3.07 100 2.2 1.6
2019-10-19 07:00:00 0 6620 2.34 1.82 3.97 100 2.3 1.8
2019-10-19 08:00:00 0.2 6834 4.86 4.52 5.49 100 4.8 4.5
2019-10-19 09:00:00 0 7332 7.33 5.7 9.1 100 7.2 5.7
2019-10-19 10:00:00 0 7352 12.02 9.83 13.4 100 11.9 9.8
2019-10-19 11:00:00 0 7342 16.21 13.87 18.43 91.39 14.6 13.8
2019-10-19 12:00:00 0 7332 19.3 18.32 20.14 69.66 13.4 12.9
2019-10-19 13:00:00 0 7236 20.37 19.75 21.04 62.37 12.8 12.4
2019-10-19 14:00:00 0 7342 20.39 19.85 20.86 61.22 12.5 12.1
2019-10-19 15:00:00 0 7148 20.44 19.91 20.93 60.02 12.2 11.9
2019-10-19 16:00:00 0 6992 18.77 17.44 19.92 66.11 12.1 11.8
2019-10-19 17:00:00 0 6826 16.03 14.97 17.29 77.43 11.9 11.8
2019-10-19 18:00:00 0 6718 13.21 12.07 14.71 89.89 11.4 11
2019-10-19 19:00:00 0 6688 11.08 10.38 11.95 98.76 10.7 10.3
2019-10-19 20:00:00 0 6698 10.39 9.77 10.89 100 10.3 9.7
2019-10-19 21:00:00 0 6688 9.42 9.05 9.79 100 9.3 9